TAF Text Data
IDs:
Format:
Raw Decoded Include METAR

Data at: 1620 UTC 20 May 2022

VTBS 201600Z 22006KT 9999 FEW020 29/22 Q1007 NOSIG

TAF VTBS 201100Z 2012/2118 19010KT 9999 FEW020 SCT100
  TEMPO 2106/2112 22010G25KT 4000 TSRA FEW018CB SCT030 BKN100